Airfield :
LOGIN :

Register | Disclaimer

   EN    FR    IT 

 










Legend :    VFR   Marginal VFR   IFR   Intensive IFR   Very Intensive IFR
Visi :
Ceiling :
>= 8 km
>= 3000ft
5 to 8 km
1000 to 3000 ft
1500m to 5 km
500 to 1000 ft
800 to 1500m
200 to 500 ft
< 800m
< 200 ft
Symbols :   Thunderstorms  Fog  Heavy snow  Heavy precipitations  Wind > 20 kt
SIGMETs :     Misc.  Thunderstorms  Icing  Turbulence  Mountain Waves  Volcanic Ashes






- Airport Elevation : 288 ft
- IATA code : BZZ


EGVN - RAF Brize Norton

CURRENT METAR :
  • 152020Z 01015KT 9999 -RA BKN022 BKN030 BKN060 07/04 Q1003 TEMPO 4500 -RADZ BKN010 RMK WHT TEMPO GRN

EXPIRED METARs :
  • 151950Z 36016KT 9999 -RA SCT023 BKN050 BKN060 07/04 Q1003 TEMPO 4500 -RADZ BKN010 RMK WHT TEMPO GRN
  • 151850Z 01016KT 9999 -RA FEW022 SCT036 BKN045 07/04 Q1003 BECMG SCT022 BLU BECMG WHT
  • 151820Z 01013KT 9999 FEW022 BKN045 07/04 Q1004 BECMG SCT022 RMK BLU BECMG WHT
  • 151750Z 01014KT 9999 FEW018 BKN050 07/04 Q1004 NOSIG

TAF TAF EGVN
Valid from the 15 at 18:00 until the 16 at 18:00 UTC


151635Z 1518/1618 02012KT 9999 BKN030
BECMG 1518/1520 BKN010
TEMPO 1518/1602 4500 -RADZ
PROB30
TEMPO 1518/1524 01015G25KT
PROB40
TEMPO 1602/1606 SCT028
BECMG 1606/1609 SCT030
PROB30
TEMPO 1609/1614 SCT010



MET'MAP, your aeronautical weather chart ! - Copyright ORBIFLY December 2007 - Disclaimer

ORBIFLY MET'MAP TEAM :

Programming & Development : Alexandra Zaïnal
Concept & Development : Baudouin d'Aumeries
Co-Development & Prog : Marc-Olivier Méhu
Technical & hardware support : Manuel Goepfert

Contact : metmap@orbifly.com




SOURCES & CREDITS :

   NOAA